sensor_id;sensor_type;location;lat;lon;timestamp;temperature;humidity
22081;DHT22;11207;59.512;18.050;2023-04-03T00:01:14;-3.50;99.90
22081;DHT22;11207;59.512;18.050;2023-04-03T00:03:39;-3.50;99.90
22081;DHT22;11207;59.512;18.050;2023-04-03T00:06:06;-3.50;99.90
22081;DHT22;11207;59.512;18.050;2023-04-03T00:08:34;-3.60;99.90
22081;DHT22;11207;59.512;18.050;2023-04-03T00:11:01;-3.50;99.90
22081;DHT22;11207;59.512;18.050;2023-04-03T00:13:27;-3.60;99.90
22081;DHT22;11207;59.512;18.050;2023-04-03T00:15:53;-3.60;99.90
22081;DHT22;11207;59.512;18.050;2023-04-03T00:18:19;-3.70;99.90
22081;DHT22;11207;59.512;18.050;2023-04-03T00:20:44;-3.70;99.90
22081;DHT22;11207;59.512;18.050;2023-04-03T00:23:10;-3.80;99.90
22081;DHT22;11207;59.512;18.050;2023-04-03T00:25:36;-3.80;99.90
22081;DHT22;11207;59.512;18.050;2023-04-03T00:28:03;-3.70;99.90
22081;DHT22;11207;59.512;18.050;2023-04-03T00:30:29;-3.80;99.90
22081;DHT22;11207;59.512;18.050;2023-04-03T00:32:57;-3.90;99.90
22081;DHT22;11207;59.512;18.050;2023-04-03T00:35:24;-3.70;99.90
22081;DHT22;11207;59.512;18.050;2023-04-03T00:37:54;-3.80;99.90
22081;DHT22;11207;59.512;18.050;2023-04-03T00:40:22;-3.80;99.90
22081;DHT22;11207;59.512;18.050;2023-04-03T00:42:50;-3.90;99.90
22081;DHT22;11207;59.512;18.050;2023-04-03T00:45:44;-3.90;99.90
22081;DHT22;11207;59.512;18.050;2023-04-03T00:48:14;-3.90;99.90
22081;DHT22;11207;59.512;18.050;2023-04-03T00:50:42;-3.90;99.90
22081;DHT22;11207;59.512;18.050;2023-04-03T00:53:14;-4.00;99.90
22081;DHT22;11207;59.512;18.050;2023-04-03T00:55:41;-4.00;99.90
22081;DHT22;11207;59.512;18.050;2023-04-03T00:58:08;-4.00;99.90
22081;DHT22;11207;59.512;18.050;2023-04-03T01:00:36;-4.10;99.90
22081;DHT22;11207;59.512;18.050;2023-04-03T01:03:03;-4.10;99.90
22081;DHT22;11207;59.512;18.050;2023-04-03T01:05:29;-4.10;99.90
22081;DHT22;11207;59.512;18.050;2023-04-03T01:07:55;-4.00;99.90
22081;DHT22;11207;59.512;18.050;2023-04-03T01:10:22;-4.00;99.90
22081;DHT22;11207;59.512;18.050;2023-04-03T01:12:49;-4.10;99.90
22081;DHT22;11207;59.512;18.050;2023-04-03T01:15:22;-4.10;99.90
22081;DHT22;11207;59.512;18.050;2023-04-03T01:17:51;-4.10;99.90
22081;DHT22;11207;59.512;18.050;2023-04-03T01:25:43;-4.20;99.90
22081;DHT22;11207;59.512;18.050;2023-04-03T01:28:18;-4.10;99.90
22081;DHT22;11207;59.512;18.050;2023-04-03T01:30:59;-4.20;99.90
22081;DHT22;11207;59.512;18.050;2023-04-03T01:33:26;-4.20;99.90
22081;DHT22;11207;59.512;18.050;2023-04-03T01:35:51;-4.10;99.90
22081;DHT22;11207;59.512;18.050;2023-04-03T01:38:17;-4.20;99.90
22081;DHT22;11207;59.512;18.050;2023-04-03T01:40:43;-4.30;99.90
22081;DHT22;11207;59.512;18.050;2023-04-03T01:43:09;-4.30;99.90
22081;DHT22;11207;59.512;18.050;2023-04-03T01:45:34;-4.40;99.90
22081;DHT22;11207;59.512;18.050;2023-04-03T01:48:00;-4.40;99.90
22081;DHT22;11207;59.512;18.050;2023-04-03T01:50:26;-4.40;99.90
22081;DHT22;11207;59.512;18.050;2023-04-03T01:52:51;-4.40;99.90
22081;DHT22;11207;59.512;18.050;2023-04-03T01:55:17;-4.50;99.90
22081;DHT22;11207;59.512;18.050;2023-04-03T01:57:42;-4.50;99.90
22081;DHT22;11207;59.512;18.050;2023-04-03T02:00:08;-4.50;99.90
22081;DHT22;11207;59.512;18.050;2023-04-03T02:02:35;-4.60;99.90
22081;DHT22;11207;59.512;18.050;2023-04-03T02:05:00;-4.60;99.90
22081;DHT22;11207;59.512;18.050;2023-04-03T02:07:26;-4.60;99.90
22081;DHT22;11207;59.512;18.050;2023-04-03T02:09:52;-4.60;99.90
22081;DHT22;11207;59.512;18.050;2023-04-03T02:12:18;-4.60;99.90
22081;DHT22;11207;59.512;18.050;2023-04-03T02:14:43;-4.60;99.90
22081;DHT22;11207;59.512;18.050;2023-04-03T02:17:09;-4.60;99.90
22081;DHT22;11207;59.512;18.050;2023-04-03T02:19:35;-4.70;99.90
22081;DHT22;11207;59.512;18.050;2023-04-03T02:22:04;-4.60;99.90
22081;DHT22;11207;59.512;18.050;2023-04-03T02:24:30;-4.70;99.90
22081;DHT22;11207;59.512;18.050;2023-04-03T02:26:56;-4.70;99.90
22081;DHT22;11207;59.512;18.050;2023-04-03T02:29:22;-4.60;99.90
22081;DHT22;11207;59.512;18.050;2023-04-03T02:31:51;-4.70;99.90
22081;DHT22;11207;59.512;18.050;2023-04-03T02:34:17;-4.70;99.90
22081;DHT22;11207;59.512;18.050;2023-04-03T02:36:43;-4.80;99.90
22081;DHT22;11207;59.512;18.050;2023-04-03T02:39:08;-4.80;99.90
22081;DHT22;11207;59.512;18.050;2023-04-03T02:41:34;-4.80;99.90
22081;DHT22;11207;59.512;18.050;2023-04-03T02:44:05;-4.90;99.90
22081;DHT22;11207;59.512;18.050;2023-04-03T02:46:31;-4.80;99.90
22081;DHT22;11207;59.512;18.050;2023-04-03T02:48:57;-4.80;99.90
22081;DHT22;11207;59.512;18.050;2023-04-03T02:51:23;-4.80;99.90
22081;DHT22;11207;59.512;18.050;2023-04-03T02:53:49;-4.90;99.90
22081;DHT22;11207;59.512;18.050;2023-04-03T02:56:17;-4.80;99.90
22081;DHT22;11207;59.512;18.050;2023-04-03T02:58:44;-4.90;99.90
22081;DHT22;11207;59.512;18.050;2023-04-03T03:01:10;-4.90;99.90
22081;DHT22;11207;59.512;18.050;2023-04-03T03:03:36;-4.90;99.90
22081;DHT22;11207;59.512;18.050;2023-04-03T03:06:03;-5.10;99.90
22081;DHT22;11207;59.512;18.050;2023-04-03T03:08:33;-4.90;99.90
22081;DHT22;11207;59.512;18.050;2023-04-03T03:10:59;-4.90;99.90
22081;DHT22;11207;59.512;18.050;2023-04-03T03:13:25;-4.90;99.90
22081;DHT22;11207;59.512;18.050;2023-04-03T03:15:51;-4.90;99.90
22081;DHT22;11207;59.512;18.050;2023-04-03T03:18:17;-4.90;99.90
22081;DHT22;11207;59.512;18.050;2023-04-03T03:20:43;-5.00;99.90
22081;DHT22;11207;59.512;18.050;2023-04-03T03:23:09;-4.90;99.90
22081;DHT22;11207;59.512;18.050;2023-04-03T03:25:38;-4.90;99.90
22081;DHT22;11207;59.512;18.050;2023-04-03T03:28:04;-4.90;99.90
22081;DHT22;11207;59.512;18.050;2023-04-03T03:30:30;-4.90;99.90
22081;DHT22;11207;59.512;18.050;2023-04-03T03:32:59;-4.90;99.90
22081;DHT22;11207;59.512;18.050;2023-04-03T03:35:24;-4.90;99.90
22081;DHT22;11207;59.512;18.050;2023-04-03T03:37:50;-4.90;99.90
22081;DHT22;11207;59.512;18.050;2023-04-03T03:40:16;-4.90;99.90
22081;DHT22;11207;59.512;18.050;2023-04-03T03:42:41;-4.90;99.90
22081;DHT22;11207;59.512;18.050;2023-04-03T03:45:08;-4.90;99.90
22081;DHT22;11207;59.512;18.050;2023-04-03T03:47:34;-5.00;99.90
22081;DHT22;11207;59.512;18.050;2023-04-03T03:49:59;-5.00;99.90
22081;DHT22;11207;59.512;18.050;2023-04-03T03:52:25;-4.90;99.90
22081;DHT22;11207;59.512;18.050;2023-04-03T03:54:53;-5.00;99.90
22081;DHT22;11207;59.512;18.050;2023-04-03T03:57:19;-5.00;99.90
22081;DHT22;11207;59.512;18.050;2023-04-03T03:59:50;-5.00;99.90
22081;DHT22;11207;59.512;18.050;2023-04-03T04:02:18;-5.00;99.90
22081;DHT22;11207;59.512;18.050;2023-04-03T04:04:43;-4.90;99.90
22081;DHT22;11207;59.512;18.050;2023-04-03T04:07:09;-4.90;99.90
22081;DHT22;11207;59.512;18.050;2023-04-03T04:09:34;-5.00;99.90
22081;DHT22;11207;59.512;18.050;2023-04-03T04:12:00;-5.00;99.90
22081;DHT22;11207;59.512;18.050;2023-04-03T04:14:26;-5.00;99.90
22081;DHT22;11207;59.512;18.050;2023-04-03T04:16:52;-5.10;99.90
22081;DHT22;11207;59.512;18.050;2023-04-03T04:19:17;-5.00;99.90
22081;DHT22;11207;59.512;18.050;2023-04-03T04:21:43;-5.10;99.90
22081;DHT22;11207;59.512;18.050;2023-04-03T04:24:09;-5.10;99.90
22081;DHT22;11207;59.512;18.050;2023-04-03T04:26:34;-5.20;99.90
22081;DHT22;11207;59.512;18.050;2023-04-03T04:29:00;-5.10;99.90
22081;DHT22;11207;59.512;18.050;2023-04-03T04:31:26;-5.10;99.90
22081;DHT22;11207;59.512;18.050;2023-04-03T04:33:53;-5.10;99.90
22081;DHT22;11207;59.512;18.050;2023-04-03T04:36:19;-5.10;99.90
22081;DHT22;11207;59.512;18.050;2023-04-03T04:38:45;-5.10;99.90
22081;DHT22;11207;59.512;18.050;2023-04-03T04:41:10;-5.10;99.90
22081;DHT22;11207;59.512;18.050;2023-04-03T04:43:36;-5.10;99.90
22081;DHT22;11207;59.512;18.050;2023-04-03T04:46:04;-5.10;99.90
22081;DHT22;11207;59.512;18.050;2023-04-03T04:48:30;-5.10;99.90
22081;DHT22;11207;59.512;18.050;2023-04-03T04:50:55;-5.10;99.90
22081;DHT22;11207;59.512;18.050;2023-04-03T04:53:21;-5.10;99.90
22081;DHT22;11207;59.512;18.050;2023-04-03T04:55:47;-5.10;99.90
22081;DHT22;11207;59.512;18.050;2023-04-03T04:58:13;-5.10;99.90
22081;DHT22;11207;59.512;18.050;2023-04-03T05:00:39;-5.00;99.90
22081;DHT22;11207;59.512;18.050;2023-04-03T05:03:05;-5.00;99.90
22081;DHT22;11207;59.512;18.050;2023-04-03T05:05:30;-5.00;99.90
22081;DHT22;11207;59.512;18.050;2023-04-03T05:07:56;-5.00;99.90
22081;DHT22;11207;59.512;18.050;2023-04-03T05:10:22;-4.90;99.90
22081;DHT22;11207;59.512;18.050;2023-04-03T05:12:47;-4.90;99.90
22081;DHT22;11207;59.512;18.050;2023-04-03T05:15:13;-4.90;99.90
22081;DHT22;11207;59.512;18.050;2023-04-03T05:17:39;-4.80;99.90
22081;DHT22;11207;59.512;18.050;2023-04-03T05:20:05;-4.80;99.90
22081;DHT22;11207;59.512;18.050;2023-04-03T05:22:31;-4.80;99.90
22081;DHT22;11207;59.512;18.050;2023-04-03T05:24:58;-4.80;99.90
22081;DHT22;11207;59.512;18.050;2023-04-03T05:27:23;-4.70;99.90
22081;DHT22;11207;59.512;18.050;2023-04-03T05:29:50;-4.70;99.90
22081;DHT22;11207;59.512;18.050;2023-04-03T05:32:16;-4.60;99.90
22081;DHT22;11207;59.512;18.050;2023-04-03T05:34:41;-4.60;99.90
22081;DHT22;11207;59.512;18.050;2023-04-03T05:37:07;-4.50;99.90
22081;DHT22;11207;59.512;18.050;2023-04-03T05:39:33;-4.50;99.90
22081;DHT22;11207;59.512;18.050;2023-04-03T05:41:59;-4.40;99.90
22081;DHT22;11207;59.512;18.050;2023-04-03T05:44:24;-4.40;99.90
22081;DHT22;11207;59.512;18.050;2023-04-03T05:46:50;-4.30;99.90
22081;DHT22;11207;59.512;18.050;2023-04-03T05:49:16;-4.30;99.90
22081;DHT22;11207;59.512;18.050;2023-04-03T05:52:20;-4.20;99.90
22081;DHT22;11207;59.512;18.050;2023-04-03T05:54:46;-4.10;99.90
22081;DHT22;11207;59.512;18.050;2023-04-03T05:57:14;-3.80;99.90
22081;DHT22;11207;59.512;18.050;2023-04-03T05:59:41;-3.80;99.90
22081;DHT22;11207;59.512;18.050;2023-04-03T06:02:14;-3.80;99.90
22081;DHT22;11207;59.512;18.050;2023-04-03T06:04:39;-3.70;99.90
22081;DHT22;11207;59.512;18.050;2023-04-03T06:07:06;-3.60;99.90
22081;DHT22;11207;59.512;18.050;2023-04-03T06:09:33;-3.50;99.90
22081;DHT22;11207;59.512;18.050;2023-04-03T06:11:59;-3.40;99.90
22081;DHT22;11207;59.512;18.050;2023-04-03T06:14:25;-3.20;99.90
22081;DHT22;11207;59.512;18.050;2023-04-03T06:16:52;-3.10;99.90
22081;DHT22;11207;59.512;18.050;2023-04-03T06:19:17;-3.00;99.90
22081;DHT22;11207;59.512;18.050;2023-04-03T06:21:43;-2.90;99.90
22081;DHT22;11207;59.512;18.050;2023-04-03T06:24:10;-2.80;99.90
22081;DHT22;11207;59.512;18.050;2023-04-03T06:26:37;-2.60;99.90
22081;DHT22;11207;59.512;18.050;2023-04-03T06:29:03;-2.60;99.90
22081;DHT22;11207;59.512;18.050;2023-04-03T06:31:29;-2.50;99.90
22081;DHT22;11207;59.512;18.050;2023-04-03T06:33:55;-2.30;99.90
22081;DHT22;11207;59.512;18.050;2023-04-03T06:36:21;-2.20;99.90
22081;DHT22;11207;59.512;18.050;2023-04-03T06:38:48;-2.20;99.90
22081;DHT22;11207;59.512;18.050;2023-04-03T06:41:14;-2.10;99.90
22081;DHT22;11207;59.512;18.050;2023-04-03T06:43:40;-2.00;99.90
22081;DHT22;11207;59.512;18.050;2023-04-03T06:46:05;-1.70;99.90
22081;DHT22;11207;59.512;18.050;2023-04-03T06:48:34;-1.80;99.90
22081;DHT22;11207;59.512;18.050;2023-04-03T06:51:00;-1.80;99.90
22081;DHT22;11207;59.512;18.050;2023-04-03T06:53:26;-1.70;99.90
22081;DHT22;11207;59.512;18.050;2023-04-03T06:55:52;-1.60;99.90
22081;DHT22;11207;59.512;18.050;2023-04-03T06:58:20;-1.40;99.90
22081;DHT22;11207;59.512;18.050;2023-04-03T07:00:45;-1.30;99.90
22081;DHT22;11207;59.512;18.050;2023-04-03T07:03:12;-1.20;99.90
22081;DHT22;11207;59.512;18.050;2023-04-03T07:05:38;-1.10;99.90
22081;DHT22;11207;59.512;18.050;2023-04-03T07:08:04;-1.00;99.90
22081;DHT22;11207;59.512;18.050;2023-04-03T07:10:32;-1.00;99.90
22081;DHT22;11207;59.512;18.050;2023-04-03T07:12:58;-0.90;99.90
22081;DHT22;11207;59.512;18.050;2023-04-03T07:15:23;-0.80;99.90
22081;DHT22;11207;59.512;18.050;2023-04-03T07:17:50;-0.70;99.90
22081;DHT22;11207;59.512;18.050;2023-04-03T07:20:15;-0.70;99.90
22081;DHT22;11207;59.512;18.050;2023-04-03T07:22:41;-0.60;99.90
22081;DHT22;11207;59.512;18.050;2023-04-03T07:25:07;-0.40;99.90
22081;DHT22;11207;59.512;18.050;2023-04-03T07:39:04;-0.20;99.90
22081;DHT22;11207;59.512;18.050;2023-04-03T07:41:29;-0.10;99.90
22081;DHT22;11207;59.512;18.050;2023-04-03T07:43:56;0.00;99.90
22081;DHT22;11207;59.512;18.050;2023-04-03T07:46:22;0.00;99.90
22081;DHT22;11207;59.512;18.050;2023-04-03T07:48:48;0.10;99.90
22081;DHT22;11207;59.512;18.050;2023-04-03T07:51:13;0.20;99.90
22081;DHT22;11207;59.512;18.050;2023-04-03T07:53:40;0.20;99.90
22081;DHT22;11207;59.512;18.050;2023-04-03T07:56:06;0.30;99.90
22081;DHT22;11207;59.512;18.050;2023-04-03T07:58:32;0.30;99.90
22081;DHT22;11207;59.512;18.050;2023-04-03T08:00:58;0.30;99.90
22081;DHT22;11207;59.512;18.050;2023-04-03T08:03:25;0.40;99.90
22081;DHT22;11207;59.512;18.050;2023-04-03T08:05:51;0.40;99.90
22081;DHT22;11207;59.512;18.050;2023-04-03T08:08:19;0.60;99.90
22081;DHT22;11207;59.512;18.050;2023-04-03T08:10:51;0.60;99.90
22081;DHT22;11207;59.512;18.050;2023-04-03T08:13:18;0.70;99.90
22081;DHT22;11207;59.512;18.050;2023-04-03T08:15:44;0.70;99.90
22081;DHT22;11207;59.512;18.050;2023-04-03T08:18:10;0.70;99.90
22081;DHT22;11207;59.512;18.050;2023-04-03T08:20:37;0.80;99.90
22081;DHT22;11207;59.512;18.050;2023-04-03T08:23:04;0.80;99.90
22081;DHT22;11207;59.512;18.050;2023-04-03T08:25:33;0.90;99.90
22081;DHT22;11207;59.512;18.050;2023-04-03T08:27:59;0.80;99.90
22081;DHT22;11207;59.512;18.050;2023-04-03T08:30:24;0.90;99.90
22081;DHT22;11207;59.512;18.050;2023-04-03T08:32:50;1.10;99.90
22081;DHT22;11207;59.512;18.050;2023-04-03T08:35:16;1.10;99.90
22081;DHT22;11207;59.512;18.050;2023-04-03T08:37:41;1.10;99.90
22081;DHT22;11207;59.512;18.050;2023-04-03T08:40:15;1.10;99.90
22081;DHT22;11207;59.512;18.050;2023-04-03T08:45:53;1.30;99.90
22081;DHT22;11207;59.512;18.050;2023-04-03T08:48:26;1.30;99.90
22081;DHT22;11207;59.512;18.050;2023-04-03T08:50:59;1.40;99.90
22081;DHT22;11207;59.512;18.050;2023-04-03T08:53:29;1.40;99.90
22081;DHT22;11207;59.512;18.050;2023-04-03T08:55:58;1.50;99.90
22081;DHT22;11207;59.512;18.050;2023-04-03T08:58:30;1.50;99.90
22081;DHT22;11207;59.512;18.050;2023-04-03T09:01:02;1.50;99.90
22081;DHT22;11207;59.512;18.050;2023-04-03T09:03:36;1.60;99.90
22081;DHT22;11207;59.512;18.050;2023-04-03T09:06:21;1.60;99.90
22081;DHT22;11207;59.512;18.050;2023-04-03T09:09:14;1.70;99.90
22081;DHT22;11207;59.512;18.050;2023-04-03T09:19:58;2.00;99.90
22081;DHT22;11207;59.512;18.050;2023-04-03T09:22:34;2.00;99.90
22081;DHT22;11207;59.512;18.050;2023-04-03T09:25:15;2.10;99.90
22081;DHT22;11207;59.512;18.050;2023-04-03T09:27:42;2.10;99.90
22081;DHT22;11207;59.512;18.050;2023-04-03T09:30:17;2.10;99.90
22081;DHT22;11207;59.512;18.050;2023-04-03T09:32:45;2.20;99.90
22081;DHT22;11207;59.512;18.050;2023-04-03T09:35:33;2.20;99.90
22081;DHT22;11207;59.512;18.050;2023-04-03T09:40:41;2.30;99.90
22081;DHT22;11207;59.512;18.050;2023-04-03T09:43:26;2.40;99.90
22081;DHT22;11207;59.512;18.050;2023-04-03T09:45:53;2.60;99.90
22081;DHT22;11207;59.512;18.050;2023-04-03T09:48:24;2.80;99.90
22081;DHT22;11207;59.512;18.050;2023-04-03T09:53:38;2.70;99.90
22081;DHT22;11207;59.512;18.050;2023-04-03T09:56:21;2.80;99.90
22081;DHT22;11207;59.512;18.050;2023-04-03T09:59:08;2.90;99.90
22081;DHT22;11207;59.512;18.050;2023-04-03T10:01:42;2.90;99.90
22081;DHT22;11207;59.512;18.050;2023-04-03T10:04:17;3.00;99.90
22081;DHT22;11207;59.512;18.050;2023-04-03T10:06:49;3.00;99.90
22081;DHT22;11207;59.512;18.050;2023-04-03T10:09:31;3.10;99.90
22081;DHT22;11207;59.512;18.050;2023-04-03T10:14:27;3.20;99.90
22081;DHT22;11207;59.512;18.050;2023-04-03T10:25:40;3.30;99.90
22081;DHT22;11207;59.512;18.050;2023-04-03T10:28:18;3.40;99.90
22081;DHT22;11207;59.512;18.050;2023-04-03T10:33:32;3.60;99.90
22081;DHT22;11207;59.512;18.050;2023-04-03T10:39:52;3.70;99.90
22081;DHT22;11207;59.512;18.050;2023-04-03T10:42:14;3.70;99.90
22081;DHT22;11207;59.512;18.050;2023-04-03T10:56:47;4.20;99.90
22081;DHT22;11207;59.512;18.050;2023-04-03T11:02:25;4.10;99.90
22081;DHT22;11207;59.512;18.050;2023-04-03T11:04:58;4.30;99.90
22081;DHT22;11207;59.512;18.050;2023-04-03T11:07:46;4.20;99.90
22081;DHT22;11207;59.512;18.050;2023-04-03T11:14:32;4.20;98.80
22081;DHT22;11207;59.512;18.050;2023-04-03T11:17:33;4.30;99.80
22081;DHT22;11207;59.512;18.050;2023-04-03T11:25:43;4.40;99.80
22081;DHT22;11207;59.512;18.050;2023-04-03T11:28:13;4.60;98.70
22081;DHT22;11207;59.512;18.050;2023-04-03T11:35:58;4.60;97.00
22081;DHT22;11207;59.512;18.050;2023-04-03T11:38:36;4.60;97.10
22081;DHT22;11207;59.512;18.050;2023-04-03T11:41:10;4.70;96.20
22081;DHT22;11207;59.512;18.050;2023-04-03T11:43:58;4.60;94.20
22081;DHT22;11207;59.512;18.050;2023-04-03T11:46:49;4.70;95.80
22081;DHT22;11207;59.512;18.050;2023-04-03T11:50:16;4.90;94.80
22081;DHT22;11207;59.512;18.050;2023-04-03T11:58:12;4.90;92.00
22081;DHT22;11207;59.512;18.050;2023-04-03T12:24:33;4.90;83.90
22081;DHT22;11207;59.512;18.050;2023-04-03T12:27:20;5.00;86.80
22081;DHT22;11207;59.512;18.050;2023-04-03T12:38:15;5.00;87.80
22081;DHT22;11207;59.512;18.050;2023-04-03T12:53:52;4.90;85.50
22081;DHT22;11207;59.512;18.050;2023-04-03T12:56:31;4.80;90.90
22081;DHT22;11207;59.512;18.050;2023-04-03T12:59:26;4.90;89.70
22081;DHT22;11207;59.512;18.050;2023-04-03T13:02:00;4.90;90.70
22081;DHT22;11207;59.512;18.050;2023-04-03T13:04:31;4.90;91.20
22081;DHT22;11207;59.512;18.050;2023-04-03T13:06:57;4.90;92.00
22081;DHT22;11207;59.512;18.050;2023-04-03T13:09:31;4.90;87.40
22081;DHT22;11207;59.512;18.050;2023-04-03T13:12:20;4.80;92.40
22081;DHT22;11207;59.512;18.050;2023-04-03T13:14:59;4.80;92.30
22081;DHT22;11207;59.512;18.050;2023-04-03T13:17:25;4.80;84.00
22081;DHT22;11207;59.512;18.050;2023-04-03T13:19:53;4.70;90.20
22081;DHT22;11207;59.512;18.050;2023-04-03T13:22:38;4.80;91.30
22081;DHT22;11207;59.512;18.050;2023-04-03T13:25:10;4.70;90.80
22081;DHT22;11207;59.512;18.050;2023-04-03T13:27:39;4.80;87.10
22081;DHT22;11207;59.512;18.050;2023-04-03T13:32:52;4.70;91.80
22081;DHT22;11207;59.512;18.050;2023-04-03T13:35:37;4.70;90.00
22081;DHT22;11207;59.512;18.050;2023-04-03T13:38:21;4.70;83.50
22081;DHT22;11207;59.512;18.050;2023-04-03T13:40:56;4.70;90.80
22081;DHT22;11207;59.512;18.050;2023-04-03T13:43:32;4.80;92.40
22081;DHT22;11207;59.512;18.050;2023-04-03T13:46:01;4.80;91.90
22081;DHT22;11207;59.512;18.050;2023-04-03T13:48:43;4.70;91.60
22081;DHT22;11207;59.512;18.050;2023-04-03T13:51:17;4.70;91.90
22081;DHT22;11207;59.512;18.050;2023-04-03T13:53:53;4.70;85.50
22081;DHT22;11207;59.512;18.050;2023-04-03T13:56:30;4.80;87.30
22081;DHT22;11207;59.512;18.050;2023-04-03T14:02:05;4.80;83.80
22081;DHT22;11207;59.512;18.050;2023-04-03T14:07:11;4.70;90.20
22081;DHT22;11207;59.512;18.050;2023-04-03T14:09:36;4.70;90.90
22081;DHT22;11207;59.512;18.050;2023-04-03T14:12:07;4.60;92.10
22081;DHT22;11207;59.512;18.050;2023-04-03T14:14:35;4.60;92.30
22081;DHT22;11207;59.512;18.050;2023-04-03T14:17:03;4.60;91.10
22081;DHT22;11207;59.512;18.050;2023-04-03T14:19:36;4.80;85.00
22081;DHT22;11207;59.512;18.050;2023-04-03T14:24:38;4.60;89.40
22081;DHT22;11207;59.512;18.050;2023-04-03T14:27:19;4.70;90.60
22081;DHT22;11207;59.512;18.050;2023-04-03T14:29:45;4.60;90.60
22081;DHT22;11207;59.512;18.050;2023-04-03T14:32:14;4.60;92.40
22081;DHT22;11207;59.512;18.050;2023-04-03T14:34:40;4.50;91.00
22081;DHT22;11207;59.512;18.050;2023-04-03T14:37:14;4.50;92.50
22081;DHT22;11207;59.512;18.050;2023-04-03T14:39:41;4.50;93.00
22081;DHT22;11207;59.512;18.050;2023-04-03T14:42:13;4.50;86.50
22081;DHT22;11207;59.512;18.050;2023-04-03T14:44:38;4.50;90.60
22081;DHT22;11207;59.512;18.050;2023-04-03T14:47:04;4.40;93.70
22081;DHT22;11207;59.512;18.050;2023-04-03T14:49:33;4.40;91.70
22081;DHT22;11207;59.512;18.050;2023-04-03T14:51:59;4.40;90.80
22081;DHT22;11207;59.512;18.050;2023-04-03T14:54:24;4.40;90.70
22081;DHT22;11207;59.512;18.050;2023-04-03T14:56:55;4.50;90.80
22081;DHT22;11207;59.512;18.050;2023-04-03T14:59:21;4.40;90.90
22081;DHT22;11207;59.512;18.050;2023-04-03T15:01:48;4.40;92.50
22081;DHT22;11207;59.512;18.050;2023-04-03T15:04:19;4.30;92.50
22081;DHT22;11207;59.512;18.050;2023-04-03T15:06:45;4.30;93.10
22081;DHT22;11207;59.512;18.050;2023-04-03T15:09:23;4.30;92.40
22081;DHT22;11207;59.512;18.050;2023-04-03T15:11:51;4.30;92.70
22081;DHT22;11207;59.512;18.050;2023-04-03T15:14:17;4.30;90.20
22081;DHT22;11207;59.512;18.050;2023-04-03T15:16:42;4.30;89.10
22081;DHT22;11207;59.512;18.050;2023-04-03T15:19:08;4.30;89.90
22081;DHT22;11207;59.512;18.050;2023-04-03T15:21:35;4.20;93.80
22081;DHT22;11207;59.512;18.050;2023-04-03T15:24:01;4.30;90.60
22081;DHT22;11207;59.512;18.050;2023-04-03T15:26:27;4.20;90.00
22081;DHT22;11207;59.512;18.050;2023-04-03T15:28:52;4.20;90.10
22081;DHT22;11207;59.512;18.050;2023-04-03T15:31:18;4.20;91.90
22081;DHT22;11207;59.512;18.050;2023-04-03T15:33:44;4.10;92.90
22081;DHT22;11207;59.512;18.050;2023-04-03T15:36:09;4.20;91.80
22081;DHT22;11207;59.512;18.050;2023-04-03T15:38:35;4.00;92.40
22081;DHT22;11207;59.512;18.050;2023-04-03T15:41:04;4.10;91.70
22081;DHT22;11207;59.512;18.050;2023-04-03T15:43:30;4.10;89.20
22081;DHT22;11207;59.512;18.050;2023-04-03T15:45:57;4.00;90.80
22081;DHT22;11207;59.512;18.050;2023-04-03T15:48:24;4.00;92.90
22081;DHT22;11207;59.512;18.050;2023-04-03T15:50:49;3.90;90.60
22081;DHT22;11207;59.512;18.050;2023-04-03T15:53:15;4.00;91.10
22081;DHT22;11207;59.512;18.050;2023-04-03T15:55:41;4.00;92.00
22081;DHT22;11207;59.512;18.050;2023-04-03T15:58:07;3.90;90.10
22081;DHT22;11207;59.512;18.050;2023-04-03T16:00:33;3.80;91.00
22081;DHT22;11207;59.512;18.050;2023-04-03T16:03:05;3.80;91.70
22081;DHT22;11207;59.512;18.050;2023-04-03T16:05:31;3.80;92.90
22081;DHT22;11207;59.512;18.050;2023-04-03T16:07:58;3.80;92.50
22081;DHT22;11207;59.512;18.050;2023-04-03T16:10:28;3.70;90.40
22081;DHT22;11207;59.512;18.050;2023-04-03T16:12:54;3.70;90.50
22081;DHT22;11207;59.512;18.050;2023-04-03T16:15:19;3.60;90.30
22081;DHT22;11207;59.512;18.050;2023-04-03T16:17:45;3.70;92.60
22081;DHT22;11207;59.512;18.050;2023-04-03T16:20:13;3.40;91.00
22081;DHT22;11207;59.512;18.050;2023-04-03T16:22:39;3.40;92.10
22081;DHT22;11207;59.512;18.050;2023-04-03T16:25:25;3.40;92.00
22081;DHT22;11207;59.512;18.050;2023-04-03T16:27:52;3.30;94.10
22081;DHT22;11207;59.512;18.050;2023-04-03T16:30:18;3.20;94.50
22081;DHT22;11207;59.512;18.050;2023-04-03T16:32:44;3.20;94.70
22081;DHT22;11207;59.512;18.050;2023-04-03T16:35:10;3.10;95.20
22081;DHT22;11207;59.512;18.050;2023-04-03T16:37:38;3.10;94.10
22081;DHT22;11207;59.512;18.050;2023-04-03T16:40:06;2.90;94.10
22081;DHT22;11207;59.512;18.050;2023-04-03T16:42:32;3.00;94.30
22081;DHT22;11207;59.512;18.050;2023-04-03T16:44:58;3.00;93.10
22081;DHT22;11207;59.512;18.050;2023-04-03T16:47:26;3.00;93.00
22081;DHT22;11207;59.512;18.050;2023-04-03T16:49:52;2.80;93.30
22081;DHT22;11207;59.512;18.050;2023-04-03T16:52:17;2.70;95.70
22081;DHT22;11207;59.512;18.050;2023-04-03T16:54:43;2.70;97.20
22081;DHT22;11207;59.512;18.050;2023-04-03T16:57:08;2.50;97.80
22081;DHT22;11207;59.512;18.050;2023-04-03T16:59:34;2.60;99.20
22081;DHT22;11207;59.512;18.050;2023-04-03T17:02:00;2.40;99.10
22081;DHT22;11207;59.512;18.050;2023-04-03T17:04:25;2.40;95.10
22081;DHT22;11207;59.512;18.050;2023-04-03T17:06:51;2.30;98.60
22081;DHT22;11207;59.512;18.050;2023-04-03T17:09:17;2.20;99.80
22081;DHT22;11207;59.512;18.050;2023-04-03T17:11:43;2.10;99.80
22081;DHT22;11207;59.512;18.050;2023-04-03T17:14:08;2.00;99.60
22081;DHT22;11207;59.512;18.050;2023-04-03T17:16:35;2.00;99.70
22081;DHT22;11207;59.512;18.050;2023-04-03T17:19:02;2.00;98.70
22081;DHT22;11207;59.512;18.050;2023-04-03T17:21:28;1.80;99.90
22081;DHT22;11207;59.512;18.050;2023-04-03T17:23:57;1.60;99.90
22081;DHT22;11207;59.512;18.050;2023-04-03T17:26:25;1.60;99.90
22081;DHT22;11207;59.512;18.050;2023-04-03T17:28:51;1.50;99.90
22081;DHT22;11207;59.512;18.050;2023-04-03T17:31:16;1.40;99.90
22081;DHT22;11207;59.512;18.050;2023-04-03T17:33:42;1.30;99.70
22081;DHT22;11207;59.512;18.050;2023-04-03T17:36:08;1.20;99.20
22081;DHT22;11207;59.512;18.050;2023-04-03T17:38:34;1.10;99.90
22081;DHT22;11207;59.512;18.050;2023-04-03T17:41:03;1.00;98.30
22081;DHT22;11207;59.512;18.050;2023-04-03T17:43:30;1.00;99.50
22081;DHT22;11207;59.512;18.050;2023-04-03T17:46:01;0.90;99.90
22081;DHT22;11207;59.512;18.050;2023-04-03T17:48:30;0.80;99.90
22081;DHT22;11207;59.512;18.050;2023-04-03T17:50:56;0.70;99.60
22081;DHT22;11207;59.512;18.050;2023-04-03T17:53:22;0.60;99.90
22081;DHT22;11207;59.512;18.050;2023-04-03T17:55:48;0.50;99.90